createdAt,value
2023-06-15T00:05:27.511Z,7.97
2023-06-15T00:12:10.313Z,6.47
2023-06-15T00:18:56.167Z,7.88
2023-06-15T00:25:38.716Z,7.15
2023-06-15T00:32:21.084Z,5.82
2023-06-15T00:39:03.624Z,5.40
2023-06-15T00:45:46.217Z,7.03
2023-06-15T00:52:30.590Z,7.20
2023-06-15T00:59:12.926Z,5.55
2023-06-15T01:05:58.548Z,6.78
2023-06-15T01:12:45.617Z,6.65
2023-06-15T01:19:55.585Z,5.22
2023-06-15T01:26:40.100Z,6.55
2023-06-15T01:33:24.127Z,6.95
2023-06-15T01:40:07.265Z,6.15
2023-06-15T01:46:50.489Z,5.80
2023-06-15T01:53:33.322Z,6.07
2023-06-15T02:00:16.127Z,6.75
2023-06-15T02:06:58.464Z,6.32
2023-06-15T02:13:41.065Z,8.07
2023-06-15T02:20:23.720Z,5.28
2023-06-15T02:27:07.059Z,6.45
2023-06-15T02:33:49.999Z,6.07
2023-06-15T02:40:32.774Z,4.90
2023-06-15T02:47:15.362Z,6.93
2023-06-15T02:53:58.024Z,6.68
2023-06-15T03:00:42.188Z,8.43
2023-06-15T03:07:36.800Z,10.27
2023-06-15T03:14:37.897Z,8.52
2023-06-15T03:21:24.125Z,6.63
2023-06-15T03:28:08.116Z,7.93
2023-06-15T03:34:53.469Z,6.50
2023-06-15T03:41:38.237Z,6.05
2023-06-15T03:48:20.855Z,7.82
2023-06-15T03:55:03.818Z,6.70
2023-06-15T04:01:46.344Z,7.88
2023-06-15T04:08:28.848Z,9.95
2023-06-15T04:15:12.217Z,10.15
2023-06-15T04:21:57.668Z,8.35
2023-06-15T04:28:40.680Z,6.00
2023-06-15T04:35:23.408Z,7.80
2023-06-15T04:42:06.486Z,7.93
2023-06-15T04:48:50.482Z,9.07
2023-06-15T04:55:32.900Z,11.48
2023-06-15T05:02:15.486Z,6.50
2023-06-15T05:08:57.906Z,6.95
2023-06-15T05:15:40.526Z,7.78
2023-06-15T05:22:23.070Z,7.05
2023-06-15T05:29:07.831Z,7.38
2023-06-15T05:35:51.112Z,6.00
2023-06-15T05:42:33.646Z,5.10
2023-06-15T05:49:16.347Z,6.32
2023-06-15T05:55:58.941Z,7.20
2023-06-15T06:02:42.443Z,4.78
2023-06-15T06:09:29.836Z,5.10
2023-06-15T06:16:12.893Z,5.07
2023-06-15T06:22:55.723Z,6.15
2023-06-15T06:29:38.146Z,6.40
2023-06-15T06:36:20.596Z,11.00
2023-06-15T06:43:03.005Z,7.35
2023-06-15T06:49:46.708Z,5.50
2023-06-15T06:56:29.048Z,4.47
2023-06-15T07:03:11.446Z,5.60
2023-06-15T07:09:53.941Z,13.73
2023-06-15T07:16:36.283Z,8.43
2023-06-15T07:23:18.601Z,8.23
2023-06-15T07:30:01.288Z,5.90
2023-06-15T07:36:43.697Z,6.68
2023-06-15T07:43:26.085Z,6.95
2023-06-15T07:50:09.211Z,4.35
2023-06-15T07:56:51.599Z,4.90
2023-06-15T08:03:34.072Z,7.57
2023-06-15T08:10:17.007Z,6.00
2023-06-15T08:16:59.627Z,6.53
2023-06-15T08:23:41.994Z,4.53
2023-06-15T08:30:24.366Z,5.35
2023-06-15T08:37:06.752Z,4.75
2023-06-15T08:43:53.745Z,5.10
2023-06-15T08:50:38.615Z,6.28
2023-06-15T08:57:21.515Z,5.07
2023-06-15T09:04:04.096Z,4.35
2023-06-15T09:10:46.737Z,5.22
2023-06-15T09:17:29.500Z,6.07
2023-06-15T09:24:13.510Z,4.07
2023-06-15T09:31:00.581Z,3.63
2023-06-15T09:37:43.221Z,3.95
2023-06-15T09:44:27.312Z,4.25
2023-06-15T09:51:10.512Z,4.55
2023-06-15T09:57:54.109Z,6.35
2023-06-15T10:04:41.436Z,5.15
2023-06-15T10:24:52.235Z,4.78
2023-06-15T10:31:56.696Z,3.88
2023-06-15T10:39:02.344Z,5.20
2023-06-15T10:45:44.800Z,4.45
2023-06-15T10:52:35.667Z,4.25
2023-06-15T10:59:38.778Z,4.93
2023-06-15T11:06:42.452Z,3.70
2023-06-15T11:13:26.734Z,3.70
2023-06-15T11:20:48.331Z,4.05
2023-06-15T11:27:32.673Z,7.05
2023-06-15T11:34:15.145Z,3.78
2023-06-15T11:41:05.204Z,3.42
2023-06-15T11:47:47.800Z,4.25
2023-06-15T11:54:49.448Z,4.47
2023-06-15T12:01:36.667Z,5.65
2023-06-15T12:08:19.071Z,4.93
2023-06-15T12:15:02.844Z,3.38
2023-06-15T12:21:47.403Z,4.07
2023-06-15T12:28:33.186Z,5.15
2023-06-15T12:35:33.074Z,3.80
2023-06-15T12:42:21.578Z,3.83
2023-06-15T12:49:05.201Z,3.85
2023-06-15T12:55:47.888Z,4.85
2023-06-15T13:02:30.375Z,3.85
2023-06-15T13:09:12.949Z,4.05
2023-06-15T13:15:55.885Z,3.45
2023-06-15T13:22:38.212Z,4.60
2023-06-15T13:29:20.706Z,3.35
2023-06-15T13:36:03.047Z,4.20
2023-06-15T13:42:45.429Z,3.80
2023-06-15T13:49:28.136Z,2.78
2023-06-15T13:56:10.477Z,5.10
2023-06-15T14:02:52.998Z,3.80
2023-06-15T14:09:35.415Z,3.40
2023-06-15T14:16:21.054Z,3.38
2023-06-15T14:23:03.721Z,2.83
2023-06-15T14:29:47.309Z,3.20
2023-06-15T14:36:29.692Z,3.05
2023-06-15T14:43:12.146Z,3.20
2023-06-15T14:49:54.732Z,5.15
2023-06-15T14:56:39.637Z,4.50
2023-06-15T15:03:22.365Z,3.03
2023-06-15T15:10:05.318Z,3.28
2023-06-15T15:16:47.675Z,6.78
2023-06-15T15:23:34.032Z,3.35
2023-06-15T15:30:16.972Z,2.83
2023-06-15T15:36:59.719Z,4.07
2023-06-15T15:43:42.704Z,3.40
2023-06-15T15:50:25.116Z,3.65
2023-06-15T15:57:08.395Z,4.32
2023-06-15T16:03:50.822Z,3.83
2023-06-15T16:10:33.283Z,3.47
2023-06-15T16:17:15.737Z,5.15
2023-06-15T16:23:58.065Z,3.30
2023-06-15T16:30:40.749Z,3.88
2023-06-15T16:37:23.477Z,3.75
2023-06-15T16:44:05.987Z,4.25
2023-06-15T16:50:48.535Z,3.35
2023-06-15T17:06:17.572Z,3.83
2023-06-15T17:13:00.712Z,3.28
2023-06-15T17:19:44.365Z,3.33
2023-06-15T17:26:26.785Z,3.33
2023-06-15T17:33:09.334Z,3.25
2023-06-15T17:39:51.695Z,3.47
2023-06-15T17:46:34.109Z,3.40
2023-06-15T17:53:16.698Z,3.40
2023-06-15T18:00:00.366Z,3.13
2023-06-15T18:06:42.741Z,5.20
2023-06-15T18:13:25.211Z,4.32
2023-06-15T18:20:08.033Z,4.95
2023-06-15T18:26:50.585Z,3.15
2023-06-15T18:33:33.017Z,4.25
2023-06-15T18:40:15.688Z,4.15
2023-06-15T18:46:57.987Z,5.05
2023-06-15T18:53:40.585Z,4.00
2023-06-15T19:00:22.960Z,5.05
2023-06-15T19:07:06.173Z,3.47
2023-06-15T19:13:49.469Z,4.25
2023-06-15T19:20:31.840Z,5.60
2023-06-15T19:27:14.268Z,5.78
2023-06-15T19:33:57.531Z,3.88
2023-06-15T19:40:40.680Z,3.72
2023-06-15T19:47:23.311Z,5.10
2023-06-15T19:54:05.967Z,4.68
2023-06-15T20:00:48.372Z,4.20
2023-06-15T20:07:31.203Z,4.28
2023-06-15T20:14:14.296Z,5.35
2023-06-15T20:20:56.649Z,4.80
2023-06-15T20:27:40.029Z,6.18
2023-06-15T20:34:22.426Z,7.47
2023-06-15T20:41:05.987Z,3.78
2023-06-15T20:47:48.419Z,5.68
2023-06-15T20:54:31.039Z,4.57
2023-06-15T21:01:13.506Z,5.35
2023-06-15T21:07:58.684Z,6.50
2023-06-15T21:14:41.325Z,5.70
2023-06-15T21:21:23.900Z,4.85
2023-06-15T21:28:10.528Z,9.77
2023-06-15T21:34:54.917Z,5.30
2023-06-15T21:41:39.148Z,5.97
2023-06-15T21:48:21.814Z,5.78
2023-06-15T21:55:05.730Z,5.03
2023-06-15T22:01:48.178Z,4.45
2023-06-15T22:08:30.504Z,7.32
2023-06-15T22:15:13.035Z,4.72
2023-06-15T22:21:55.464Z,4.55
2023-06-15T22:28:37.749Z,6.25
2023-06-15T22:35:21.504Z,5.95
2023-06-15T22:42:04.258Z,6.07
2023-06-15T22:48:47.994Z,7.13
2023-06-15T22:55:33.349Z,7.03
2023-06-15T23:02:17.432Z,6.65
2023-06-15T23:09:01.010Z,7.10
2023-06-15T23:15:43.331Z,9.07
2023-06-15T23:22:25.669Z,6.82
2023-06-15T23:29:08.106Z,5.28
2023-06-15T23:35:50.609Z,6.80
2023-06-15T23:42:32.974Z,9.00
2023-06-15T23:49:15.711Z,5.72
2023-06-15T23:56:00.844Z,8.32
